Aviation Digital Data Service (ADDS)

Output produced by METARs form (2204 UTC 10 February 2016)
found at http://aviationweather.gov/adds/metars/
 
KMGW 102045Z 1021/1118 23008G16KT 3SM -SHSN OVC025 
     FM110100 25008KT 1 1/2SM -SHSN OVC012 
     FM110500 25008KT 3SM -SHSN OVC015 
     FM111200 28010KT P6SM -SHSN OVC025